createdAt,value
2017-07-19T00:02:24.187Z,21.20
2017-07-19T00:04:53.205Z,21.20
2017-07-19T00:07:21.455Z,21.20
2017-07-19T00:09:49.729Z,21.30
2017-07-19T00:12:18.737Z,21.30
2017-07-19T00:14:46.990Z,21.30
2017-07-19T00:17:16.026Z,21.30
2017-07-19T00:19:44.253Z,21.30
2017-07-19T00:22:13.302Z,21.40
2017-07-19T00:24:41.556Z,21.30
2017-07-19T00:27:09.813Z,21.30
2017-07-19T00:29:38.058Z,21.30
2017-07-19T00:32:06.326Z,21.30
2017-07-19T00:34:34.551Z,21.30
2017-07-19T00:37:03.616Z,21.20
2017-07-19T00:39:32.846Z,21.20
2017-07-19T00:42:01.899Z,21.30
2017-07-19T00:44:30.181Z,21.30
2017-07-19T00:46:58.432Z,21.20
2017-07-19T00:49:26.684Z,21.20
2017-07-19T00:51:54.945Z,21.20
2017-07-19T00:54:24.010Z,21.00
2017-07-19T00:56:52.237Z,21.00
2017-07-19T00:59:20.482Z,21.00
2017-07-19T01:01:48.773Z,20.90
2017-07-19T01:04:18.682Z,20.90
2017-07-19T01:06:47.039Z,20.90
2017-07-19T01:09:15.321Z,20.80
2017-07-19T01:11:44.495Z,20.80
2017-07-19T01:14:12.783Z,20.80
2017-07-19T01:16:41.161Z,20.70
2017-07-19T01:19:09.385Z,20.70
2017-07-19T01:21:37.645Z,20.60
2017-07-19T01:24:05.893Z,20.60
2017-07-19T01:26:34.165Z,20.70
2017-07-19T01:29:02.395Z,20.60
2017-07-19T01:31:30.662Z,20.70
2017-07-19T01:33:59.650Z,20.60
2017-07-19T01:36:28.646Z,20.60
2017-07-19T01:38:57.715Z,20.60
2017-07-19T01:41:27.929Z,20.60
2017-07-19T01:43:56.209Z,20.50
2017-07-19T01:46:24.505Z,20.50
2017-07-19T01:48:52.767Z,20.50
2017-07-19T01:51:21.018Z,20.50
2017-07-19T01:53:49.283Z,20.50
2017-07-19T01:56:17.527Z,20.40
2017-07-19T01:58:45.851Z,20.40
2017-07-19T02:01:14.081Z,20.40
2017-07-19T02:03:43.976Z,20.40
2017-07-19T02:06:12.278Z,20.40
2017-07-19T02:08:40.953Z,20.40
2017-07-19T02:11:09.971Z,20.40
2017-07-19T02:13:38.222Z,20.40
2017-07-19T02:16:06.475Z,20.40
2017-07-19T02:18:35.949Z,20.40
2017-07-19T02:21:04.935Z,20.40
2017-07-19T02:23:33.215Z,20.40
2017-07-19T02:26:01.455Z,20.40
2017-07-19T02:28:30.481Z,20.40
2017-07-19T02:30:58.763Z,20.40
2017-07-19T02:33:27.018Z,20.40
2017-07-19T02:35:56.069Z,20.40
2017-07-19T02:38:24.814Z,20.40
2017-07-19T02:40:53.075Z,20.40
2017-07-19T02:43:21.345Z,20.40
2017-07-19T02:45:50.379Z,20.30
2017-07-19T02:48:18.609Z,20.30
2017-07-19T02:50:47.627Z,20.20
2017-07-19T02:53:16.662Z,20.20
2017-07-19T02:55:45.032Z,20.20
2017-07-19T02:58:13.243Z,20.20
2017-07-19T03:00:41.520Z,20.20
2017-07-19T03:03:10.544Z,20.00
2017-07-19T03:05:38.787Z,19.90
2017-07-19T03:08:07.049Z,19.90
2017-07-19T03:10:35.274Z,19.90
2017-07-19T03:13:03.540Z,19.80
2017-07-19T03:15:32.676Z,19.80
2017-07-19T03:18:00.894Z,19.80
2017-07-19T03:20:29.934Z,19.70
2017-07-19T03:22:58.190Z,19.70
2017-07-19T03:25:26.432Z,19.60
2017-07-19T03:27:54.711Z,19.60
2017-07-19T03:30:22.970Z,19.70
2017-07-19T03:32:51.231Z,19.70
2017-07-19T03:35:19.478Z,19.80
2017-07-19T03:37:47.731Z,19.70
2017-07-19T03:40:15.980Z,19.70
2017-07-19T03:42:44.226Z,19.60
2017-07-19T03:45:12.531Z,19.60
2017-07-19T03:47:40.774Z,19.50
2017-07-19T03:50:09.034Z,19.50
2017-07-19T03:52:37.448Z,19.40
2017-07-19T03:55:06.442Z,19.50
2017-07-19T03:57:34.744Z,19.40
2017-07-19T04:00:03.017Z,19.50
2017-07-19T04:02:31.331Z,19.60
2017-07-19T04:05:00.373Z,19.60
2017-07-19T04:07:28.605Z,19.60
2017-07-19T04:09:57.643Z,19.70
2017-07-19T04:12:25.874Z,19.60
2017-07-19T04:14:54.939Z,19.70
2017-07-19T04:17:23.198Z,19.70
2017-07-19T04:19:51.438Z,19.70
2017-07-19T04:22:19.712Z,19.70
2017-07-19T04:24:47.995Z,19.70
2017-07-19T04:27:17.043Z,20.00
2017-07-19T04:29:45.250Z,19.90
2017-07-19T04:32:14.278Z,21.50
2017-07-19T04:34:42.522Z,21.50
2017-07-19T04:37:11.550Z,23.30
2017-07-19T04:39:39.826Z,23.30
2017-07-19T04:42:08.094Z,24.30
2017-07-19T04:44:36.374Z,25.20
2017-07-19T04:47:04.626Z,25.90
2017-07-19T04:49:33.643Z,26.30
2017-07-19T04:52:01.897Z,26.30
2017-07-19T04:54:30.901Z,27.60
2017-07-19T04:56:59.197Z,27.50
2017-07-19T04:59:27.451Z,28.10
2017-07-19T05:01:56.458Z,29.20
2017-07-19T05:04:24.820Z,29.20
2017-07-19T05:06:53.072Z,29.90
2017-07-19T05:09:21.296Z,30.50
2017-07-19T05:11:49.549Z,30.60
2017-07-19T05:14:18.571Z,31.30
2017-07-19T05:16:46.864Z,31.30
2017-07-19T05:19:15.125Z,31.40
2017-07-19T05:21:43.369Z,31.50
2017-07-19T05:24:12.417Z,31.50
2017-07-19T05:26:40.627Z,31.50
2017-07-19T05:29:08.902Z,30.80
2017-07-19T05:31:37.146Z,30.20
2017-07-19T05:34:05.842Z,29.40
2017-07-19T05:36:34.096Z,28.80
2017-07-19T05:39:02.333Z,27.90
2017-07-19T05:41:31.351Z,26.60
2017-07-19T05:43:59.589Z,26.50
2017-07-19T05:46:27.913Z,26.30
2017-07-19T05:48:56.905Z,25.50
2017-07-19T05:51:25.162Z,25.50
2017-07-19T05:53:53.442Z,25.00
2017-07-19T05:56:22.486Z,24.50
2017-07-19T05:58:50.764Z,24.50
2017-07-19T06:01:19.016Z,24.30
2017-07-19T06:03:47.333Z,24.30
2017-07-19T06:06:15.566Z,24.30
2017-07-19T06:08:43.831Z,24.40
2017-07-19T06:11:12.130Z,24.40
2017-07-19T06:13:40.385Z,24.50
2017-07-19T06:16:08.658Z,24.40
2017-07-19T06:18:37.682Z,24.50
2017-07-19T06:21:05.962Z,24.50
2017-07-19T06:23:34.233Z,24.60
2017-07-19T06:26:02.483Z,24.60
2017-07-19T06:28:30.725Z,24.60
2017-07-19T06:30:58.996Z,24.60
2017-07-19T06:33:27.437Z,24.60
2017-07-19T06:35:56.412Z,24.60
2017-07-19T06:38:25.443Z,24.60
2017-07-19T06:40:53.702Z,24.60
2017-07-19T06:43:22.749Z,24.70
2017-07-19T06:45:51.047Z,24.70
2017-07-19T06:48:19.310Z,24.80
2017-07-19T06:50:48.346Z,24.90
2017-07-19T06:53:17.575Z,24.90
2017-07-19T06:55:45.820Z,24.90
2017-07-19T06:58:14.082Z,25.00
2017-07-19T07:00:43.083Z,25.10
2017-07-19T07:03:11.344Z,25.10
2017-07-19T07:05:40.374Z,25.10
2017-07-19T07:08:08.697Z,25.10
2017-07-19T07:10:36.934Z,25.20
2017-07-19T07:13:05.203Z,25.30
2017-07-19T07:15:33.443Z,25.40
2017-07-19T07:18:01.771Z,25.50
2017-07-19T07:20:30.044Z,25.50
2017-07-19T07:22:58.274Z,25.80
2017-07-19T07:25:27.326Z,26.00
2017-07-19T07:27:55.595Z,26.00
2017-07-19T07:30:23.835Z,26.10
2017-07-19T07:32:52.095Z,26.30
2017-07-19T07:35:20.430Z,26.30
2017-07-19T07:37:48.674Z,26.40
2017-07-19T07:40:16.963Z,26.50
2017-07-19T07:42:45.258Z,26.50
2017-07-19T07:45:13.505Z,26.60
2017-07-19T07:47:42.526Z,26.80
2017-07-19T07:50:10.773Z,26.70
2017-07-19T07:52:39.803Z,27.10
2017-07-19T07:55:08.084Z,27.10
2017-07-19T07:57:36.455Z,27.30
2017-07-19T08:00:04.759Z,27.40
2017-07-19T08:02:33.024Z,27.50
2017-07-19T08:05:01.281Z,27.50
2017-07-19T08:07:29.563Z,27.60
2017-07-19T08:09:57.947Z,27.60
2017-07-19T08:12:26.186Z,27.70
2017-07-19T08:14:55.318Z,27.90
2017-07-19T08:17:23.560Z,27.90
2017-07-19T08:19:52.597Z,28.00
2017-07-19T08:22:21.274Z,28.00
2017-07-19T08:24:50.278Z,28.10
2017-07-19T08:27:18.531Z,28.20
2017-07-19T08:29:46.813Z,28.30
2017-07-19T08:32:15.133Z,28.40
2017-07-19T08:34:43.516Z,28.30
2017-07-19T08:37:11.753Z,28.30
2017-07-19T08:39:40.048Z,28.50
2017-07-19T08:42:08.416Z,28.60
2017-07-19T08:44:37.402Z,28.80
2017-07-19T08:47:05.667Z,28.70
2017-07-19T08:49:33.969Z,28.80
2017-07-19T08:52:02.345Z,29.00
2017-07-19T08:54:31.322Z,29.10
2017-07-19T08:56:59.566Z,29.10
2017-07-19T08:59:27.815Z,29.20
2017-07-19T09:01:56.082Z,29.30
2017-07-19T09:04:24.320Z,29.30
2017-07-19T09:06:52.594Z,29.30
2017-07-19T09:09:20.861Z,29.40
2017-07-19T09:11:49.087Z,29.50
2017-07-19T09:14:18.301Z,29.50
2017-07-19T09:16:46.566Z,29.50
2017-07-19T09:19:14.899Z,29.60
2017-07-19T09:21:43.925Z,29.70
2017-07-19T09:24:12.154Z,29.70
2017-07-19T09:26:40.428Z,29.90
2017-07-19T09:29:08.660Z,30.00
2017-07-19T09:31:36.950Z,30.00
2017-07-19T09:34:05.238Z,30.00
2017-07-19T09:36:33.511Z,30.10
2017-07-19T09:39:01.750Z,30.20
2017-07-19T09:41:30.038Z,30.40
2017-07-19T09:43:58.387Z,30.40
2017-07-19T09:46:26.773Z,30.30
2017-07-19T09:48:55.823Z,30.40
2017-07-19T09:51:24.078Z,30.30
2017-07-19T09:53:52.350Z,30.40
2017-07-19T09:56:20.595Z,30.50
2017-07-19T09:58:48.858Z,30.50
2017-07-19T10:01:17.869Z,30.60
2017-07-19T10:03:46.127Z,30.60
2017-07-19T10:06:14.346Z,30.70
2017-07-19T10:08:42.607Z,30.60
2017-07-19T10:11:11.635Z,30.70
2017-07-19T10:13:39.869Z,30.70
2017-07-19T10:16:08.905Z,31.00
2017-07-19T10:18:37.145Z,30.90
2017-07-19T10:21:05.381Z,31.00
2017-07-19T10:23:33.647Z,31.10
2017-07-19T10:26:01.882Z,31.30
2017-07-19T10:28:30.212Z,31.40
2017-07-19T10:30:58.474Z,31.40
2017-07-19T10:33:26.728Z,31.50
2017-07-19T10:35:54.999Z,31.50
2017-07-19T10:38:23.243Z,31.30
2017-07-19T10:40:51.507Z,31.20
2017-07-19T10:43:19.746Z,31.20
2017-07-19T10:45:48.019Z,31.10
2017-07-19T10:48:17.257Z,31.20
2017-07-19T10:50:45.538Z,31.20
2017-07-19T10:53:13.916Z,31.20
2017-07-19T10:55:42.159Z,31.20
2017-07-19T10:58:10.450Z,31.20
2017-07-19T11:00:38.728Z,31.40
2017-07-19T11:03:06.990Z,31.40
2017-07-19T11:05:35.265Z,31.40
2017-07-19T11:08:03.521Z,31.50
2017-07-19T11:10:31.819Z,31.40
2017-07-19T11:13:00.070Z,31.50
2017-07-19T11:15:28.338Z,31.60
2017-07-19T11:17:56.573Z,31.50
2017-07-19T11:20:24.833Z,31.60
2017-07-19T11:22:53.056Z,31.60
2017-07-19T11:25:22.055Z,31.60
2017-07-19T11:27:50.336Z,31.60
2017-07-19T11:30:18.603Z,31.70
2017-07-19T11:32:46.923Z,31.60
2017-07-19T11:35:15.178Z,31.60
2017-07-19T11:37:43.574Z,31.60
2017-07-19T11:40:11.813Z,31.80
2017-07-19T11:42:40.074Z,31.80
2017-07-19T11:45:08.314Z,31.90
2017-07-19T11:47:36.599Z,31.90
2017-07-19T11:50:04.866Z,32.00
2017-07-19T11:52:33.144Z,32.10
2017-07-19T11:55:01.396Z,32.10
2017-07-19T11:57:29.639Z,32.20
2017-07-19T11:59:57.912Z,32.20
2017-07-19T12:02:26.186Z,32.30
2017-07-19T12:04:54.462Z,32.50
2017-07-19T12:07:22.704Z,32.60
2017-07-19T12:09:50.982Z,32.60
2017-07-19T12:12:19.251Z,32.50
2017-07-19T12:14:47.486Z,32.50
2017-07-19T12:17:16.543Z,32.40
2017-07-19T12:19:44.808Z,32.40
2017-07-19T12:22:13.074Z,32.40
2017-07-19T12:24:41.361Z,32.40
2017-07-19T12:27:09.605Z,32.50
2017-07-19T12:29:38.011Z,32.50
2017-07-19T12:32:06.244Z,32.50
2017-07-19T12:34:35.297Z,32.70
2017-07-19T12:37:04.537Z,32.70
2017-07-19T12:39:35.285Z,32.80
2017-07-19T12:42:03.535Z,32.80
2017-07-19T12:44:31.802Z,32.80
2017-07-19T12:47:00.165Z,32.80
2017-07-19T12:49:28.389Z,32.90
2017-07-19T12:51:57.404Z,32.90
2017-07-19T12:54:25.694Z,32.90
2017-07-19T12:56:54.670Z,32.90
2017-07-19T12:59:22.937Z,32.90
2017-07-19T13:01:51.962Z,33.00
2017-07-19T13:04:20.214Z,33.00
2017-07-19T13:06:48.498Z,33.00
2017-07-19T13:09:17.638Z,33.10
2017-07-19T13:11:45.971Z,33.10
2017-07-19T13:14:14.227Z,33.10
2017-07-19T13:16:43.267Z,33.00
2017-07-19T13:19:11.515Z,32.90
2017-07-19T13:21:41.148Z,33.10
2017-07-19T13:24:09.397Z,33.10
2017-07-19T13:26:37.659Z,33.10
2017-07-19T13:29:06.702Z,33.20
2017-07-19T13:31:34.985Z,33.10
2017-07-19T13:34:03.260Z,33.20
2017-07-19T13:36:31.536Z,33.10
2017-07-19T13:39:09.718Z,33.10
2017-07-19T13:41:37.979Z,33.10
2017-07-19T13:44:06.254Z,33.10
2017-07-19T13:46:34.504Z,33.10
2017-07-19T13:49:02.798Z,33.30
2017-07-19T13:51:31.075Z,33.40
2017-07-19T13:53:59.339Z,33.40
2017-07-19T13:56:27.598Z,33.50
2017-07-19T13:58:55.961Z,33.70
2017-07-19T14:01:24.201Z,33.60
2017-07-19T14:03:53.302Z,33.60
2017-07-19T14:06:22.370Z,33.60
2017-07-19T14:08:51.439Z,33.60
2017-07-19T14:11:19.714Z,33.60
2017-07-19T14:13:47.966Z,33.70
2017-07-19T14:16:16.252Z,33.70
2017-07-19T14:18:44.505Z,33.30
2017-07-19T14:21:12.873Z,33.40
2017-07-19T14:23:41.906Z,33.20
2017-07-19T14:26:10.170Z,33.20
2017-07-19T14:28:38.460Z,33.00
2017-07-19T14:31:06.718Z,33.00
2017-07-19T14:33:34.974Z,32.90
2017-07-19T14:36:04.040Z,32.60
2017-07-19T14:38:32.314Z,32.70
2017-07-19T14:41:00.628Z,32.60
2017-07-19T14:43:28.944Z,32.50
2017-07-19T14:45:57.189Z,32.30
2017-07-19T14:48:26.222Z,32.10
2017-07-19T14:50:54.473Z,32.10
2017-07-19T14:53:22.717Z,31.90
2017-07-19T14:55:51.750Z,31.70
2017-07-19T14:58:20.015Z,31.80
2017-07-19T15:00:49.052Z,31.70
2017-07-19T15:03:17.328Z,31.70
2017-07-19T15:05:45.774Z,31.60
2017-07-19T15:08:14.092Z,31.30
2017-07-19T15:10:42.372Z,31.10
2017-07-19T15:13:10.627Z,31.00
2017-07-19T15:15:38.907Z,30.80
2017-07-19T15:18:07.287Z,30.70
2017-07-19T15:20:35.542Z,30.60
2017-07-19T15:23:03.864Z,30.40
2017-07-19T15:25:32.151Z,29.60
2017-07-19T15:28:00.450Z,28.40
2017-07-19T15:30:29.476Z,26.90
2017-07-19T15:32:57.774Z,26.90
2017-07-19T15:35:26.016Z,26.20
2017-07-19T15:37:54.314Z,25.80
2017-07-19T15:40:22.578Z,25.40
2017-07-19T15:42:50.877Z,25.10
2017-07-19T15:45:19.154Z,24.30
2017-07-19T15:47:47.403Z,23.70
2017-07-19T15:50:16.434Z,23.30
2017-07-19T15:52:44.661Z,23.00
2017-07-19T15:55:13.728Z,22.60
2017-07-19T15:57:42.142Z,22.60
2017-07-19T16:00:10.460Z,22.60
2017-07-19T16:02:38.723Z,22.60
2017-07-19T16:05:06.972Z,22.70
2017-07-19T16:07:36.046Z,22.60
2017-07-19T16:10:04.290Z,22.60
2017-07-19T16:12:32.675Z,22.50
2017-07-19T16:15:00.963Z,22.20
2017-07-19T16:17:29.227Z,22.20
2017-07-19T16:19:57.652Z,22.10
2017-07-19T16:22:26.658Z,21.90
2017-07-19T16:24:54.948Z,21.90
2017-07-19T16:27:23.206Z,21.90
2017-07-19T16:29:52.258Z,22.00
2017-07-19T16:32:20.531Z,22.00
2017-07-19T16:34:48.798Z,22.00
2017-07-19T16:37:17.108Z,21.90
2017-07-19T16:39:45.667Z,21.90
2017-07-19T16:42:13.955Z,21.80
2017-07-19T16:44:42.245Z,21.90
2017-07-19T16:47:10.514Z,21.90
2017-07-19T16:49:38.827Z,22.00
2017-07-19T16:52:07.087Z,22.00
2017-07-19T16:54:35.349Z,22.00
2017-07-19T16:57:03.638Z,21.80
2017-07-19T16:59:31.887Z,21.70
2017-07-19T17:02:00.164Z,21.60
2017-07-19T17:04:28.426Z,21.50
2017-07-19T17:06:56.711Z,21.60
2017-07-19T17:09:25.723Z,21.60
2017-07-19T17:11:53.976Z,21.60
2017-07-19T17:14:22.278Z,21.60
2017-07-19T17:16:50.572Z,21.50
2017-07-19T17:19:18.818Z,21.60
2017-07-19T17:21:47.115Z,21.50
2017-07-19T17:24:15.466Z,21.60
2017-07-19T17:26:43.786Z,21.60
2017-07-19T17:29:12.026Z,21.60
2017-07-19T17:31:40.275Z,21.60
2017-07-19T17:34:08.558Z,21.60
2017-07-19T17:36:36.860Z,21.60
2017-07-19T17:39:05.137Z,21.60
2017-07-19T17:41:33.398Z,21.60
2017-07-19T17:44:01.743Z,21.70
2017-07-19T17:46:30.011Z,21.70
2017-07-19T17:48:58.314Z,21.70
2017-07-19T17:51:27.351Z,21.70
2017-07-19T17:53:55.648Z,21.60
2017-07-19T17:56:24.753Z,21.60
2017-07-19T17:58:53.016Z,21.60
2017-07-19T18:01:22.078Z,21.60
2017-07-19T18:03:50.415Z,21.60
2017-07-19T18:06:19.468Z,21.50
2017-07-19T18:08:47.755Z,21.50
2017-07-19T18:11:16.051Z,21.50
2017-07-19T18:13:44.266Z,21.50
2017-07-19T18:16:13.448Z,21.50
2017-07-19T18:18:43.444Z,21.40
2017-07-19T18:21:11.726Z,21.30
2017-07-19T18:23:39.996Z,21.40
2017-07-19T18:26:08.257Z,21.40
2017-07-19T18:28:36.606Z,21.40
2017-07-19T18:31:04.874Z,21.40
2017-07-19T18:33:33.160Z,21.40
2017-07-19T18:36:01.412Z,21.50
2017-07-19T18:38:29.757Z,21.40
2017-07-19T18:40:58.869Z,21.40
2017-07-19T18:43:27.183Z,21.40
2017-07-19T18:45:55.458Z,21.40
2017-07-19T18:48:24.482Z,21.40
2017-07-19T18:50:52.770Z,21.30
2017-07-19T18:53:21.083Z,21.30
2017-07-19T18:55:49.331Z,21.40
2017-07-19T18:58:17.689Z,21.40
2017-07-19T19:00:45.947Z,21.30
2017-07-19T19:03:14.969Z,21.40
2017-07-19T19:05:43.223Z,21.30
2017-07-19T19:08:11.827Z,21.30
2017-07-19T19:10:40.101Z,21.40
2017-07-19T19:13:14.011Z,21.40
2017-07-19T19:15:46.863Z,21.40
2017-07-19T19:18:17.257Z,21.40
2017-07-19T19:20:46.764Z,21.40
2017-07-19T19:23:16.239Z,21.30
2017-07-19T19:25:46.865Z,21.30
2017-07-19T19:28:15.209Z,21.30
2017-07-19T19:30:46.143Z,21.20
2017-07-19T19:33:15.486Z,21.20
2017-07-19T19:35:45.364Z,21.10
2017-07-19T19:38:13.805Z,21.10
2017-07-19T19:40:42.253Z,21.10
2017-07-19T19:43:12.006Z,21.10
2017-07-19T19:45:40.398Z,21.10
2017-07-19T19:48:09.016Z,21.00
2017-07-19T19:50:37.351Z,21.00
2017-07-19T19:53:06.654Z,20.90
2017-07-19T19:55:35.880Z,21.00
2017-07-19T19:58:04.255Z,20.90
2017-07-19T20:00:33.185Z,20.90
2017-07-19T20:03:01.883Z,20.90
2017-07-19T20:05:30.192Z,20.90
2017-07-19T20:07:58.466Z,20.90
2017-07-19T20:10:26.787Z,20.80
2017-07-19T20:12:55.113Z,20.90
2017-07-19T20:15:23.592Z,20.80
2017-07-19T20:17:51.892Z,20.80
2017-07-19T20:20:20.190Z,20.90
2017-07-19T20:22:49.233Z,20.90
2017-07-19T20:25:17.516Z,20.80
2017-07-19T20:27:45.863Z,20.80
2017-07-19T20:30:14.100Z,20.70
2017-07-19T20:32:42.386Z,20.80
2017-07-19T20:35:11.121Z,20.80
2017-07-19T20:37:40.273Z,20.70
2017-07-19T20:40:08.567Z,20.70
2017-07-19T20:42:37.589Z,20.60
2017-07-19T20:45:05.864Z,20.60
2017-07-19T20:47:34.116Z,20.50
2017-07-19T20:50:02.441Z,20.50
2017-07-19T20:52:30.741Z,20.50
2017-07-19T20:54:59.061Z,20.50
2017-07-19T20:57:27.341Z,20.50
2017-07-19T20:59:55.641Z,20.60
2017-07-19T21:02:23.911Z,20.60
2017-07-19T21:04:52.193Z,20.50
2017-07-19T21:07:21.397Z,20.50
2017-07-19T21:09:49.655Z,20.50
2017-07-19T21:12:17.946Z,20.60
2017-07-19T21:14:46.391Z,20.60
2017-07-19T21:17:14.647Z,20.50
2017-07-19T21:19:42.997Z,20.50
2017-07-19T21:22:12.053Z,20.50
2017-07-19T21:24:40.398Z,20.50
2017-07-19T21:27:09.465Z,20.40
2017-07-19T21:29:37.720Z,20.40
2017-07-19T21:32:06.678Z,20.40
2017-07-19T21:34:35.708Z,20.40
2017-07-19T21:37:03.990Z,20.40
2017-07-19T21:39:32.286Z,20.40
2017-07-19T21:42:00.553Z,20.40
2017-07-19T21:44:28.861Z,20.30
2017-07-19T21:46:57.886Z,20.20
2017-07-19T21:49:26.162Z,20.20
2017-07-19T21:51:54.433Z,20.20
2017-07-19T21:54:22.733Z,20.10
2017-07-19T21:56:51.019Z,20.10
2017-07-19T21:59:19.423Z,20.10
2017-07-19T22:01:47.653Z,20.10
2017-07-19T22:04:15.957Z,20.10
2017-07-19T22:06:44.167Z,20.00
2017-07-19T22:09:12.460Z,20.00
2017-07-19T22:11:41.509Z,20.00
2017-07-19T22:14:09.798Z,20.00
2017-07-19T22:16:38.050Z,19.90
2017-07-19T22:19:06.297Z,19.90
2017-07-19T22:21:35.313Z,19.70
2017-07-19T22:24:03.582Z,19.70
2017-07-19T22:26:31.837Z,19.70
2017-07-19T22:29:00.881Z,19.80
2017-07-19T22:31:29.158Z,19.80
2017-07-19T22:33:57.398Z,19.70
2017-07-19T22:36:26.425Z,19.80
2017-07-19T22:38:54.910Z,19.80
2017-07-19T22:41:23.313Z,19.80
2017-07-19T22:43:51.558Z,19.80
2017-07-19T22:46:19.844Z,19.90
2017-07-19T22:48:48.118Z,19.80
2017-07-19T22:51:16.364Z,19.80
2017-07-19T22:53:45.408Z,19.80
2017-07-19T22:56:13.656Z,19.80
2017-07-19T22:58:43.702Z,19.60
2017-07-19T23:01:11.917Z,19.60
2017-07-19T23:03:40.934Z,19.60
2017-07-19T23:06:09.199Z,19.60
2017-07-19T23:08:37.512Z,19.60
2017-07-19T23:11:05.743Z,19.70
2017-07-19T23:13:34.786Z,19.80
2017-07-19T23:16:03.029Z,19.80
2017-07-19T23:18:31.342Z,19.80
2017-07-19T23:20:59.576Z,19.80
2017-07-19T23:23:28.584Z,19.90
2017-07-19T23:25:56.826Z,19.90
2017-07-19T23:28:25.078Z,19.90
2017-07-19T23:30:53.314Z,19.90
2017-07-19T23:33:21.586Z,20.00
2017-07-19T23:35:49.855Z,20.00
2017-07-19T23:38:18.897Z,20.00
2017-07-19T23:40:47.127Z,20.00
2017-07-19T23:43:16.134Z,19.90
2017-07-19T23:45:44.401Z,19.90
2017-07-19T23:48:12.916Z,20.00
2017-07-19T23:50:41.159Z,20.00
2017-07-19T23:53:09.447Z,20.00
2017-07-19T23:55:37.720Z,20.00
2017-07-19T23:58:06.716Z,20.00
